createdAt,value
2018-12-13T00:00:21.916Z,3.37
2018-12-13T00:01:31.969Z,3.43
2018-12-13T00:02:42.299Z,3.39
2018-12-13T00:03:52.372Z,3.4
2018-12-13T00:05:02.476Z,3.26
2018-12-13T00:06:12.280Z,3.27
2018-12-13T00:07:22.350Z,3.37
2018-12-13T00:08:32.405Z,3.4
2018-12-13T00:09:42.210Z,3.43
2018-12-13T00:10:52.013Z,3.53
2018-12-13T00:12:01.899Z,3.53
2018-12-13T00:13:11.980Z,3.67
2018-12-13T00:14:21.869Z,3.56
2018-12-13T00:15:31.920Z,3.64
2018-12-13T00:16:41.748Z,3.61
2018-12-13T00:17:51.570Z,3.72
2018-12-13T00:19:01.638Z,3.74
2018-12-13T00:20:11.737Z,3.72
2018-12-13T00:21:21.817Z,3.72
2018-12-13T00:22:31.878Z,3.72
2018-12-13T00:23:41.938Z,3.71
2018-12-13T00:24:52.022Z,3.72
2018-12-13T00:26:02.102Z,3.67
2018-12-13T00:27:12.167Z,3.69
2018-12-13T00:28:22.469Z,3.57
2018-12-13T00:29:32.520Z,3.64
2018-12-13T00:30:42.580Z,3.56
2018-12-13T00:31:52.373Z,3.53
2018-12-13T00:33:02.425Z,3.51
2018-12-13T00:34:12.215Z,3.56
2018-12-13T00:35:22.006Z,3.43
2018-12-13T00:36:31.826Z,3.43
2018-12-13T00:37:47.131Z,3.32
2018-12-13T00:38:57.213Z,3.35
2018-12-13T00:40:08.676Z,3.32
2018-12-13T00:41:18.983Z,3.37
2018-12-13T00:42:29.051Z,3.29
2018-12-13T00:43:38.860Z,3.26
2018-12-13T00:44:48.912Z,3.19
2018-12-13T00:45:58.983Z,3.17
2018-12-13T00:47:09.054Z,3.11
2018-12-13T00:48:19.197Z,3.13
2018-12-13T00:49:29.007Z,3.09
2018-12-13T00:50:39.055Z,2.99
2018-12-13T00:51:49.112Z,3.02
2018-12-13T00:52:59.173Z,3.05
2018-12-13T00:54:09.434Z,2.93
2018-12-13T00:55:19.512Z,2.95
2018-12-13T00:56:29.591Z,2.9
2018-12-13T00:57:39.661Z,2.93
2018-12-13T00:58:49.729Z,2.85
2018-12-13T00:59:59.836Z,2.93
2018-12-13T01:01:09.890Z,2.9
2018-12-13T01:02:20.626Z,2.88
2018-12-13T01:03:30.700Z,2.83
2018-12-13T01:04:40.809Z,2.91
2018-12-13T01:05:50.904Z,2.9
2018-12-13T01:07:00.966Z,2.81
2018-12-13T01:08:11.614Z,2.78
2018-12-13T01:09:21.423Z,2.84
2018-12-13T01:10:31.494Z,2.76
2018-12-13T01:11:41.986Z,2.76
2018-12-13T01:12:52.061Z,2.81
2018-12-13T01:14:02.110Z,2.77
2018-12-13T01:15:12.181Z,2.72
2018-12-13T01:16:22.240Z,2.72
2018-12-13T01:17:32.350Z,2.73
2018-12-13T01:18:42.141Z,2.7
2018-12-13T01:19:52.196Z,2.72
2018-12-13T01:21:02.239Z,2.76
2018-12-13T01:22:12.292Z,2.72
2018-12-13T01:23:22.342Z,2.73
2018-12-13T01:24:32.395Z,2.77
2018-12-13T01:25:42.196Z,2.67
2018-12-13T01:26:52.274Z,2.7
2018-12-13T01:28:03.033Z,2.73
2018-12-13T01:29:13.245Z,2.65
2018-12-13T01:30:23.370Z,2.66
2018-12-13T01:31:33.434Z,2.69
2018-12-13T01:32:43.244Z,2.72
2018-12-13T01:33:53.299Z,2.73
2018-12-13T01:35:03.364Z,2.7
2018-12-13T01:36:13.181Z,2.6
2018-12-13T01:37:23.005Z,2.66
2018-12-13T01:38:33.166Z,2.72
2018-12-13T01:39:42.981Z,2.59
2018-12-13T01:40:53.101Z,2.69
2018-12-13T01:42:03.913Z,2.76
2018-12-13T01:43:13.997Z,2.62
2018-12-13T01:44:24.081Z,2.72
2018-12-13T01:45:34.149Z,2.67
2018-12-13T01:46:44.219Z,2.72
2018-12-13T01:47:54.109Z,2.73
2018-12-13T01:49:05.202Z,2.7
2018-12-13T01:50:15.299Z,2.72
2018-12-13T01:51:25.362Z,2.65
2018-12-13T01:52:35.151Z,2.59
2018-12-13T01:53:45.248Z,2.62
2018-12-13T01:54:55.295Z,2.62
2018-12-13T01:56:05.357Z,2.6
2018-12-13T01:57:15.400Z,2.58
2018-12-13T01:58:25.457Z,2.51
2018-12-13T01:59:35.502Z,2.51
2018-12-13T02:00:45.631Z,2.52
2018-12-13T02:01:55.698Z,2.48
2018-12-13T02:03:05.754Z,2.47
2018-12-13T02:04:15.995Z,2.48
2018-12-13T02:05:25.814Z,2.45
2018-12-13T02:06:36.106Z,2.52
2018-12-13T02:07:46.144Z,2.41
2018-12-13T02:08:56.202Z,2.42
2018-12-13T02:10:05.992Z,2.41
2018-12-13T02:11:16.114Z,2.45
2018-12-13T02:12:26.251Z,2.44
2018-12-13T02:13:36.320Z,2.34
2018-12-13T02:14:46.386Z,2.33
2018-12-13T02:15:56.442Z,2.34
2018-12-13T02:17:06.504Z,2.31
2018-12-13T02:18:16.621Z,2.4
2018-12-13T02:19:26.692Z,2.31
2018-12-13T02:20:36.476Z,2.33
2018-12-13T02:21:47.008Z,2.33
2018-12-13T02:22:57.072Z,2.3
2018-12-13T02:24:07.116Z,2.29
2018-12-13T02:25:16.916Z,2.23
2018-12-13T02:26:26.967Z,2.23
2018-12-13T02:27:37.079Z,2.2
2018-12-13T02:28:47.141Z,2.24
2018-12-13T02:29:56.947Z,2.26
2018-12-13T02:31:07.005Z,2.34
2018-12-13T02:32:17.070Z,2.26
2018-12-13T02:33:26.884Z,2.33
2018-12-13T02:34:36.699Z,2.33
2018-12-13T02:35:46.496Z,2.29
2018-12-13T02:36:56.606Z,2.31
2018-12-13T02:38:13.355Z,2.3
2018-12-13T02:39:23.465Z,2.31
2018-12-13T02:40:33.757Z,2.29
2018-12-13T02:41:43.843Z,2.33
2018-12-13T02:42:53.972Z,2.27
2018-12-13T02:44:04.037Z,2.29
2018-12-13T02:45:13.839Z,2.31
2018-12-13T02:46:23.982Z,2.31
2018-12-13T02:47:34.088Z,2.27
2018-12-13T02:48:44.141Z,2.27
2018-12-13T02:49:54.205Z,2.23
2018-12-13T02:51:04.267Z,2.26
2018-12-13T02:52:13.814Z,2.18
2018-12-13T02:53:23.607Z,2.18
2018-12-13T02:54:33.664Z,2.18
2018-12-13T02:55:44.327Z,2.15
2018-12-13T02:56:54.376Z,2.15
2018-12-13T02:58:05.550Z,2.15
2018-12-13T02:59:15.598Z,2.13
2018-12-13T03:00:25.608Z,2.15
2018-12-13T03:01:35.689Z,2.11
2018-12-13T03:02:45.739Z,2.13
2018-12-13T03:34:58.319Z,0.09
2018-12-13T03:36:08.387Z,0.08
2018-12-13T03:37:25.353Z,0.08
2018-12-13T03:38:35.415Z,0.2
2018-12-13T03:39:45.461Z,0.23
2018-12-13T03:40:55.532Z,0.35
2018-12-13T03:42:05.607Z,0.38
2018-12-13T03:43:15.647Z,0.61
2018-12-13T03:44:25.700Z,0.71
2018-12-13T03:45:35.765Z,0.92
2018-12-13T03:46:45.872Z,1.02
2018-12-13T03:47:55.937Z,1.2
2018-12-13T03:49:08.102Z,1.46
2018-12-13T03:50:17.903Z,1.6
2018-12-13T03:51:27.996Z,1.71
2018-12-13T03:52:38.059Z,1.74
2018-12-13T03:53:48.121Z,1.97
2018-12-13T03:54:58.187Z,2.01
2018-12-13T03:56:07.745Z,2.13
2018-12-13T03:57:17.565Z,2.23
2018-12-13T03:58:27.764Z,2.3
2018-12-13T03:59:37.823Z,2.42
2018-12-13T04:00:47.379Z,2.62
2018-12-13T04:01:57.456Z,2.65
2018-12-13T04:03:07.290Z,2.76
2018-12-13T04:04:16.934Z,2.78
2018-12-13T04:05:26.749Z,2.85
2018-12-13T04:06:36.866Z,2.91
2018-12-13T04:07:46.685Z,3.06
2018-12-13T04:08:56.779Z,3.13
2018-12-13T04:10:07.898Z,3.19
2018-12-13T04:11:17.954Z,3.13
2018-12-13T04:12:28.009Z,3.29
2018-12-13T04:13:38.126Z,3.3
2018-12-13T04:14:48.165Z,3.32
2018-12-13T04:15:58.316Z,3.3
2018-12-13T04:17:08.124Z,3.32
2018-12-13T04:18:17.963Z,3.37
2018-12-13T04:19:28.038Z,3.43
2018-12-13T04:20:38.115Z,3.4
2018-12-13T04:21:48.371Z,3.37
2018-12-13T04:22:57.958Z,3.34
2018-12-13T04:24:09.559Z,3.42
2018-12-13T04:25:19.426Z,3.42
2018-12-13T04:26:29.516Z,3.57
2018-12-13T04:27:39.629Z,3.53
2018-12-13T04:28:49.721Z,3.57
2018-12-13T04:29:59.524Z,3.6
2018-12-13T04:31:11.090Z,3.67
2018-12-13T04:32:21.141Z,3.67
2018-12-13T04:33:30.961Z,3.63
2018-12-13T04:34:41.115Z,3.66
2018-12-13T04:35:50.926Z,3.71
2018-12-13T04:37:00.998Z,3.67
2018-12-13T04:38:11.084Z,3.61
2018-12-13T04:39:20.932Z,3.56
2018-12-13T04:40:31.030Z,3.51
2018-12-13T04:41:41.160Z,3.53
2018-12-13T04:42:51.024Z,3.58
2018-12-13T04:44:01.085Z,3.54
2018-12-13T04:45:11.214Z,3.64
2018-12-13T04:46:21.293Z,3.66
2018-12-13T04:47:31.341Z,3.67
2018-12-13T04:48:41.462Z,3.63
2018-12-13T04:49:51.513Z,3.63
2018-12-13T04:51:02.214Z,3.71
2018-12-13T04:52:12.348Z,3.72
2018-12-13T04:53:22.613Z,3.72
2018-12-13T04:54:32.690Z,3.66
2018-12-13T04:55:42.520Z,3.74
2018-12-13T04:56:52.617Z,3.78
2018-12-13T04:58:02.748Z,3.82
2018-12-13T04:59:12.531Z,3.85
2018-12-13T05:00:22.347Z,3.79
2018-12-13T05:01:32.412Z,3.9
2018-12-13T05:02:42.471Z,3.78
2018-12-13T05:03:52.519Z,3.82
2018-12-13T05:05:02.325Z,3.79
2018-12-13T05:06:12.386Z,3.86
2018-12-13T05:07:22.626Z,3.85
2018-12-13T05:08:32.496Z,3.89
2018-12-13T05:09:42.556Z,3.79
2018-12-13T05:10:52.094Z,3.86
2018-12-13T05:12:02.166Z,3.85
2018-12-13T05:13:12.228Z,3.82
2018-12-13T05:14:22.288Z,3.89
2018-12-13T05:15:32.372Z,3.79
2018-12-13T05:16:42.432Z,3.89
2018-12-13T05:17:52.585Z,3.92
2018-12-13T05:19:02.810Z,3.85
2018-12-13T05:20:12.402Z,3.93
2018-12-13T05:21:22.233Z,3.82
2018-12-13T05:22:32.123Z,3.81
2018-12-13T05:23:42.201Z,3.93
2018-12-13T05:24:52.020Z,3.85
2018-12-13T05:26:02.093Z,3.89
2018-12-13T05:27:12.153Z,3.82
2018-12-13T05:28:22.205Z,3.85
2018-12-13T05:29:32.372Z,3.84
2018-12-13T05:30:42.489Z,3.81
2018-12-13T05:31:52.538Z,3.69
2018-12-13T05:33:04.712Z,3.75
2018-12-13T05:34:14.598Z,3.74
2018-12-13T05:35:24.672Z,3.64
2018-12-13T05:36:34.714Z,3.76
2018-12-13T05:37:50.730Z,3.76
2018-12-13T05:39:00.567Z,3.9
2018-12-13T05:40:10.622Z,3.85
2018-12-13T05:41:20.416Z,3.86
2018-12-13T05:42:30.221Z,3.86
2018-12-13T05:43:40.371Z,3.89
2018-12-13T05:44:50.181Z,3.92
2018-12-13T05:46:01.436Z,3.79
2018-12-13T05:47:11.496Z,3.89
2018-12-13T05:48:21.560Z,3.92
2018-12-13T05:49:31.852Z,3.84
2018-12-13T05:50:41.651Z,3.84
2018-12-13T05:51:51.474Z,3.86
2018-12-13T05:53:01.535Z,3.89
2018-12-13T05:54:11.582Z,3.81
2018-12-13T05:55:21.677Z,3.9
2018-12-13T05:56:31.774Z,3.92
2018-12-13T05:57:41.835Z,3.9
2018-12-13T05:58:51.896Z,3.89
2018-12-13T06:00:01.952Z,3.75
2018-12-13T06:01:12.072Z,3.71
2018-12-13T06:02:21.638Z,3.69
2018-12-13T06:03:31.483Z,3.82
2018-12-13T06:04:41.541Z,3.66
2018-12-13T06:05:51.639Z,3.71
2018-12-13T06:07:01.420Z,3.67
2018-12-13T06:08:11.457Z,3.69
2018-12-13T06:09:21.521Z,3.76
2018-12-13T06:10:31.376Z,3.69
2018-12-13T06:11:41.416Z,3.75
2018-12-13T06:12:51.551Z,3.69
2018-12-13T06:14:02.472Z,3.74
2018-12-13T06:15:12.527Z,3.72
2018-12-13T06:16:22.587Z,3.78
2018-12-13T06:17:32.642Z,3.72
2018-12-13T06:18:42.485Z,3.67
2018-12-13T06:19:52.532Z,3.75
2018-12-13T06:21:02.584Z,3.75
2018-12-13T06:22:17.169Z,3.85
2018-12-13T06:23:27.232Z,3.85
2018-12-13T06:24:37.542Z,3.89
2018-12-13T06:25:47.618Z,3.86
2018-12-13T06:26:58.306Z,3.93
2018-12-13T06:28:08.363Z,3.93
2018-12-13T06:29:18.525Z,3.85
2018-12-13T06:30:28.685Z,3.75
2018-12-13T06:31:38.807Z,3.76
2018-12-13T06:32:48.863Z,3.76
2018-12-13T06:33:58.932Z,3.64
2018-12-13T06:35:09.010Z,3.71
2018-12-13T06:36:19.156Z,3.72
2018-12-13T06:37:29.243Z,3.67
2018-12-13T06:38:39.298Z,3.64
2018-12-13T06:39:49.511Z,3.64
2018-12-13T06:40:59.630Z,3.63
2018-12-13T06:42:09.696Z,3.57
2018-12-13T06:43:19.740Z,3.56
2018-12-13T06:44:29.561Z,3.57
2018-12-13T06:45:39.353Z,3.54
2018-12-13T06:46:49.170Z,3.58
2018-12-13T06:47:59.298Z,3.53
2018-12-13T06:49:09.599Z,3.54
2018-12-13T06:50:19.651Z,3.54
2018-12-13T06:51:29.183Z,3.56
2018-12-13T06:52:39.242Z,3.57
2018-12-13T06:53:49.245Z,3.53
2018-12-13T06:54:59.314Z,3.57
2018-12-13T06:56:10.161Z,3.48
2018-12-13T06:57:20.226Z,3.49
2018-12-13T06:58:30.290Z,3.53
2018-12-13T06:59:40.352Z,3.53
2018-12-13T07:00:50.457Z,3.54
2018-12-13T07:02:00.527Z,3.53
2018-12-13T07:03:10.344Z,3.54
2018-12-13T07:04:19.901Z,3.46
2018-12-13T07:05:30.030Z,3.51
2018-12-13T07:06:40.076Z,3.54
2018-12-13T07:07:49.872Z,3.56
2018-12-13T07:08:59.928Z,3.56
2018-12-13T07:10:09.987Z,3.56
2018-12-13T07:11:20.108Z,3.48
2018-12-13T07:12:30.019Z,3.49
2018-12-13T07:13:40.069Z,3.45
2018-12-13T07:14:50.107Z,3.45
2018-12-13T07:15:59.928Z,3.48
2018-12-13T07:17:10.081Z,3.56
2018-12-13T07:18:19.873Z,3.43
2018-12-13T07:19:30.140Z,3.49
2018-12-13T07:20:39.919Z,3.51
2018-12-13T07:21:50.034Z,3.54
2018-12-13T07:23:00.116Z,3.61
2018-12-13T07:24:10.184Z,3.57
2018-12-13T07:25:20.349Z,3.69
2018-12-13T07:26:30.490Z,3.69
2018-12-13T07:27:40.587Z,3.67
2018-12-13T07:28:50.651Z,3.76
2018-12-13T07:30:03.209Z,3.76
2018-12-13T07:31:13.413Z,3.86
2018-12-13T07:32:23.459Z,3.93
2018-12-13T07:33:33.515Z,3.89
2018-12-13T07:34:43.624Z,3.97
2018-12-13T07:35:53.705Z,3.9
2018-12-13T07:37:03.879Z,3.92
2018-12-13T07:38:18.971Z,3.92
2018-12-13T07:39:29.046Z,3.86
2018-12-13T07:40:39.361Z,3.89
2018-12-13T07:41:49.411Z,3.86
2018-12-13T07:42:59.472Z,3.82
2018-12-13T07:44:09.517Z,3.81
2018-12-13T07:45:19.300Z,3.76
2018-12-13T07:46:29.355Z,3.72
2018-12-13T07:47:39.424Z,3.66
2018-12-13T07:48:49.482Z,3.75
2018-12-13T07:50:04.207Z,3.72
2018-12-13T07:51:13.747Z,3.72
2018-12-13T07:52:23.802Z,3.81
2018-12-13T07:53:33.854Z,3.78
2018-12-13T07:54:43.924Z,3.84
2018-12-13T07:55:54.002Z,3.79
2018-12-13T07:57:03.791Z,3.84
2018-12-13T07:58:13.854Z,3.82
2018-12-13T07:59:23.900Z,3.82
2018-12-13T08:00:33.691Z,3.82
2018-12-13T08:01:43.736Z,3.96
2018-12-13T08:02:53.552Z,3.92
2018-12-13T08:04:04.977Z,4
2018-12-13T08:05:15.460Z,3.99
2018-12-13T08:06:25.538Z,3.94
2018-12-13T08:07:35.613Z,4.03
2018-12-13T08:08:45.687Z,3.89
2018-12-13T08:09:55.491Z,3.97
2018-12-13T08:11:08.183Z,4
2018-12-13T08:12:17.989Z,4.02
2018-12-13T08:13:28.048Z,4.04
2018-12-13T08:14:38.198Z,4.1
2018-12-13T08:15:48.016Z,4.12
2018-12-13T08:16:58.075Z,4.11
2018-12-13T08:18:09.039Z,4.17
2018-12-13T08:19:19.061Z,4.17
2018-12-13T08:20:29.134Z,4.24
2018-12-13T08:21:38.921Z,4.28
2018-12-13T08:22:49.890Z,4.17
2018-12-13T08:24:00.047Z,4.18
2018-12-13T08:25:10.119Z,4.28
2018-12-13T08:26:20.087Z,4.28
2018-12-13T08:27:30.168Z,4.35
2018-12-13T08:28:39.970Z,4.26
2018-12-13T08:29:50.029Z,4.3
2018-12-13T08:31:00.101Z,4.21
2018-12-13T08:32:09.922Z,4.3
2018-12-13T08:33:19.764Z,4.29
2018-12-13T08:34:29.555Z,4.28
2018-12-13T08:35:39.615Z,4.21
2018-12-13T08:36:49.695Z,4.24
2018-12-13T08:37:59.812Z,4.33
2018-12-13T08:39:10.032Z,4.3
2018-12-13T08:40:19.927Z,4.42
2018-12-13T08:41:30.070Z,4.36
2018-12-13T08:42:39.902Z,4.35
2018-12-13T08:43:50.009Z,4.36
2018-12-13T08:45:00.594Z,4.39
2018-12-13T08:46:10.682Z,4.36
2018-12-13T08:47:20.768Z,4.48
2018-12-13T08:48:30.833Z,4.33
2018-12-13T08:49:40.961Z,4.4
2018-12-13T08:50:51.142Z,4.38
2018-12-13T08:52:02.078Z,4.42
2018-12-13T08:53:11.897Z,4.42
2018-12-13T08:54:23.468Z,4.33
2018-12-13T08:55:33.773Z,4.58
2018-12-13T08:56:43.827Z,4.53
2018-12-13T08:57:53.944Z,4.44
2018-12-13T08:59:05.462Z,4.48
2018-12-13T09:00:15.653Z,4.5
2018-12-13T09:01:26.817Z,4.56
2018-12-13T09:02:37.942Z,4.56
2018-12-13T09:03:48.824Z,4.53
2018-12-13T09:04:59.879Z,4.66
2018-12-13T09:06:11.171Z,4.68
2018-12-13T09:07:21.725Z,4.71
2018-12-13T09:08:36.470Z,4.71
2018-12-13T09:09:47.858Z,4.74
2018-12-13T09:10:58.648Z,4.69
2018-12-13T09:12:09.235Z,4.69
2018-12-13T09:13:19.364Z,4.69
2018-12-13T09:14:29.463Z,4.75
2018-12-13T09:15:39.793Z,4.76
2018-12-13T09:16:50.283Z,4.79
2018-12-13T09:18:00.620Z,4.76
2018-12-13T09:19:10.961Z,4.9
2018-12-13T09:20:21.985Z,4.78
2018-12-13T09:21:32.765Z,4.78
2018-12-13T09:22:43.874Z,4.79
2018-12-13T09:23:53.968Z,4.83
2018-12-13T09:25:03.870Z,4.83
2018-12-13T09:26:15.003Z,4.83
2018-12-13T09:27:25.342Z,4.76
2018-12-13T09:28:35.495Z,4.87
2018-12-13T09:29:45.623Z,4.83
2018-12-13T09:30:56.745Z,4.76
2018-12-13T09:32:07.911Z,4.75
2018-12-13T09:33:18.398Z,4.88
2018-12-13T09:34:29.330Z,4.87
2018-12-13T09:35:40.387Z,4.83
2018-12-13T09:36:50.865Z,4.85
2018-12-13T09:38:03.006Z,4.85
2018-12-13T09:39:13.644Z,4.76
2018-12-13T09:40:24.301Z,4.75
2018-12-13T09:41:35.179Z,4.85
2018-12-13T09:42:45.948Z,4.83
2018-12-13T09:43:56.902Z,4.79
2018-12-13T09:45:07.586Z,4.84
2018-12-13T09:46:17.981Z,4.83
2018-12-13T09:47:28.480Z,4.78
2018-12-13T09:48:39.813Z,4.87
2018-12-13T09:49:50.656Z,4.78
2018-12-13T09:51:01.840Z,4.83
2018-12-13T09:52:12.542Z,4.87
2018-12-13T09:53:22.469Z,4.83
2018-12-13T09:54:32.639Z,4.83
2018-12-13T09:55:44.316Z,4.75
2018-12-13T09:56:54.793Z,4.85
2018-12-13T09:58:05.438Z,4.76
2018-12-13T09:59:15.978Z,4.91
2018-12-13T10:00:26.037Z,4.87
2018-12-13T10:01:35.859Z,4.88
2018-12-13T10:02:45.986Z,4.92
2018-12-13T10:03:55.797Z,4.83
2018-12-13T10:05:05.648Z,4.92
2018-12-13T10:06:15.697Z,4.92
2018-12-13T10:07:25.823Z,4.84
2018-12-13T10:08:35.682Z,4.9
2018-12-13T10:09:51.640Z,4.76
2018-12-13T10:11:01.447Z,4.85
2018-12-13T10:12:11.496Z,4.83
2018-12-13T10:13:21.569Z,4.76
2018-12-13T10:14:31.379Z,4.83
2018-12-13T10:15:41.435Z,4.84
2018-12-13T10:16:51.277Z,4.78
2018-12-13T10:18:01.098Z,4.64
2018-12-13T10:19:11.186Z,4.72
2018-12-13T10:20:20.996Z,4.68
2018-12-13T10:21:31.087Z,4.71
2018-12-13T10:22:40.896Z,4.6
2018-12-13T10:23:50.962Z,4.66
2018-12-13T10:25:00.793Z,4.66
2018-12-13T10:26:10.861Z,4.5
2018-12-13T10:27:20.943Z,4.51
2018-12-13T10:28:30.739Z,4.5
2018-12-13T10:29:40.352Z,4.64
2018-12-13T10:30:50.439Z,4.61
2018-12-13T10:32:01.359Z,4.58
2018-12-13T10:33:11.457Z,4.64
2018-12-13T10:34:21.507Z,4.6
2018-12-13T10:35:31.390Z,4.61
2018-12-13T10:36:41.454Z,4.54
2018-12-13T10:37:51.386Z,4.64
2018-12-13T10:39:01.533Z,4.64
2018-12-13T10:40:11.590Z,4.66
2018-12-13T10:41:21.664Z,4.57
2018-12-13T10:42:32.655Z,4.66
2018-12-13T10:43:42.524Z,4.57
2018-12-13T10:44:52.609Z,4.6
2018-12-13T10:46:02.777Z,4.65
2018-12-13T10:47:12.857Z,4.5
2018-12-13T10:48:22.945Z,4.5
2018-12-13T10:49:33.040Z,4.48
2018-12-13T10:50:43.153Z,4.58
2018-12-13T10:51:53.212Z,4.51
2018-12-13T10:53:03.283Z,4.51
2018-12-13T10:54:12.849Z,4.56
2018-12-13T10:55:22.642Z,4.48
2018-12-13T10:56:32.445Z,4.33
2018-12-13T10:57:42.690Z,4.39
2018-12-13T10:58:52.499Z,4.28
2018-12-13T11:00:02.803Z,4.32
2018-12-13T11:01:12.869Z,4.2
2018-12-13T11:02:22.683Z,4.26
2018-12-13T11:03:32.731Z,4.22
2018-12-13T11:04:42.803Z,4.14
2018-12-13T11:05:52.648Z,4.15
2018-12-13T11:07:05.663Z,4.22
2018-12-13T11:08:15.731Z,4.22
2018-12-13T11:09:25.774Z,4.2
2018-12-13T11:10:36.099Z,4.21
2018-12-13T11:11:46.213Z,4.2
2018-12-13T11:12:55.747Z,4.21
2018-12-13T11:14:06.497Z,4.21
2018-12-13T11:15:16.050Z,4.22
2018-12-13T11:16:25.842Z,4.15
2018-12-13T11:17:35.653Z,4.15
2018-12-13T11:18:46.212Z,4.17
2018-12-13T11:19:56.293Z,4.21
2018-12-13T11:21:07.762Z,4.24
2018-12-13T11:22:23.102Z,4.15
2018-12-13T11:23:33.139Z,4.15
2018-12-13T11:24:43.192Z,4.18
2018-12-13T11:25:53.247Z,4.26
2018-12-13T11:27:03.853Z,4.18
2018-12-13T11:28:13.705Z,4.17
2018-12-13T11:29:23.987Z,4.2
2018-12-13T11:30:34.087Z,4.12
2018-12-13T11:31:44.142Z,4.15
2018-12-13T11:32:54.207Z,4.14
2018-12-13T11:34:03.754Z,4.17
2018-12-13T11:35:15.337Z,4.17
2018-12-13T11:36:25.412Z,4.24
2018-12-13T11:37:35.250Z,4.17
2018-12-13T11:38:45.320Z,4.15
2018-12-13T11:39:55.386Z,4.21
2018-12-13T11:41:05.623Z,4.15
2018-12-13T11:42:15.683Z,4.17
2018-12-13T11:43:25.944Z,4.15
2018-12-13T11:44:35.996Z,4.17
2018-12-13T11:45:45.797Z,4.17
2018-12-13T11:46:55.840Z,4.15
2018-12-13T11:48:05.637Z,4.17
2018-12-13T11:49:17.171Z,4.26
2018-12-13T11:50:27.752Z,4.3
2018-12-13T11:51:38.273Z,4.21
2018-12-13T11:52:49.643Z,4.29
2018-12-13T11:53:59.552Z,4.28
2018-12-13T11:55:09.654Z,4.26
2018-12-13T11:56:19.711Z,4.2
2018-12-13T11:57:29.798Z,4.17
2018-12-13T11:58:39.353Z,4.12
2018-12-13T11:59:49.429Z,4.1
2018-12-13T12:00:59.500Z,4.1
2018-12-13T12:02:09.556Z,4.12
2018-12-13T12:03:19.594Z,4.2
2018-12-13T12:04:29.674Z,4.17
2018-12-13T12:05:39.749Z,4.2
2018-12-13T12:06:49.823Z,4.21
2018-12-13T12:07:59.756Z,4.21
2018-12-13T12:09:16.935Z,4.29
2018-12-13T12:10:26.744Z,4.28
2018-12-13T12:11:37.006Z,4.26
2018-12-13T12:12:47.069Z,4.26
2018-12-13T12:13:57.151Z,4.29
2018-12-13T12:15:08.149Z,4.3
2018-12-13T12:16:18.220Z,4.21
2018-12-13T12:17:28.420Z,4.28
2018-12-13T12:18:38.271Z,4.11
2018-12-13T12:19:48.078Z,4.21
2018-12-13T12:20:58.375Z,4.11
2018-12-13T12:22:08.435Z,4.15
2018-12-13T12:23:18.497Z,4.1
2018-12-13T12:24:28.054Z,4.03
2018-12-13T12:25:38.103Z,3.94
2018-12-13T12:26:47.902Z,3.96
2018-12-13T12:27:57.705Z,3.89
2018-12-13T12:29:08.115Z,3.93
2018-12-13T12:30:18.206Z,3.94
2018-12-13T12:31:28.021Z,3.9
2018-12-13T12:32:38.061Z,3.89
2018-12-13T12:33:48.124Z,3.93
2018-12-13T12:34:58.172Z,3.93
2018-12-13T12:36:08.251Z,3.84
2018-12-13T12:37:17.806Z,3.82
2018-12-13T12:38:27.622Z,3.92
2018-12-13T12:39:37.789Z,3.82
2018-12-13T12:40:47.592Z,3.85
2018-12-13T12:41:57.386Z,3.71
2018-12-13T12:43:07.443Z,3.84
2018-12-13T12:44:17.503Z,3.75
2018-12-13T12:45:27.562Z,3.75
2018-12-13T12:46:37.642Z,3.82
2018-12-13T12:47:47.767Z,3.9
2018-12-13T12:48:57.580Z,3.89
2018-12-13T12:50:07.691Z,3.94
2018-12-13T12:51:17.742Z,3.94
2018-12-13T12:52:27.856Z,3.96
2018-12-13T12:53:37.920Z,3.86
2018-12-13T12:54:47.975Z,3.92
2018-12-13T12:55:58.031Z,3.82
2018-12-13T12:57:07.949Z,3.78
2018-12-13T12:58:18.785Z,3.89
2018-12-13T12:59:28.929Z,3.85
2018-12-13T13:00:39.019Z,3.9
2018-12-13T13:01:48.805Z,3.76
2018-12-13T13:02:58.602Z,3.81
2018-12-13T13:04:08.690Z,3.79
2018-12-13T13:05:18.749Z,3.74
2018-12-13T13:06:28.823Z,3.78
2018-12-13T13:07:38.904Z,3.74
2018-12-13T13:08:48.999Z,3.74
2018-12-13T13:09:58.828Z,3.67
2018-12-13T13:11:08.646Z,3.64
2018-12-13T13:12:18.699Z,3.67
2018-12-13T13:13:28.501Z,3.56
2018-12-13T13:14:38.304Z,3.49
2018-12-13T13:15:48.400Z,3.51
2018-12-13T13:16:58.445Z,3.53
2018-12-13T13:18:10.270Z,3.48
2018-12-13T13:19:20.327Z,3.46
2018-12-13T13:20:30.380Z,3.51
2018-12-13T13:21:40.528Z,3.49
2018-12-13T13:22:50.596Z,3.49
2018-12-13T13:24:00.959Z,3.48
2018-12-13T13:25:10.739Z,3.49
2018-12-13T13:26:20.813Z,3.53
2018-12-13T13:27:31.174Z,3.48
2018-12-13T13:28:41.240Z,3.58
2018-12-13T13:29:51.334Z,3.54
2018-12-13T13:31:01.393Z,3.53
2018-12-13T13:32:11.457Z,3.58
2018-12-13T13:33:21.277Z,3.54
2018-12-13T13:34:31.596Z,3.56
2018-12-13T13:35:41.400Z,3.54
2018-12-13T13:36:51.474Z,3.48
2018-12-13T13:38:01.549Z,3.51
2018-12-13T13:39:11.657Z,3.54
2018-12-13T13:40:21.783Z,3.42
2018-12-13T13:41:31.806Z,3.45
2018-12-13T13:42:41.868Z,3.49
2018-12-13T13:43:51.697Z,3.53
2018-12-13T13:45:01.554Z,3.53
2018-12-13T13:46:11.464Z,3.53
2018-12-13T13:47:21.335Z,3.51
2018-12-13T13:48:31.428Z,3.54
2018-12-13T13:49:41.225Z,3.51
2018-12-13T13:50:51.301Z,3.46
2018-12-13T13:52:01.378Z,3.45
2018-12-13T13:53:11.198Z,3.39
2018-12-13T13:54:21.003Z,3.35
2018-12-13T13:55:31.070Z,3.35
2018-12-13T13:56:41.237Z,3.37
2018-12-13T13:57:51.293Z,3.34
2018-12-13T13:59:01.120Z,3.34
2018-12-13T14:00:10.924Z,3.32
2018-12-13T14:01:20.985Z,3.37
2018-12-13T14:02:30.850Z,3.39
2018-12-13T14:03:40.910Z,3.35
2018-12-13T14:04:50.728Z,3.37
2018-12-13T14:06:01.121Z,3.34
2018-12-13T14:07:11.210Z,3.34
2018-12-13T14:08:21.283Z,3.37
2018-12-13T14:09:37.695Z,3.26
2018-12-13T14:10:47.966Z,3.19
2018-12-13T14:11:58.028Z,3.16
2018-12-13T14:13:09.634Z,3.26
2018-12-13T14:14:19.718Z,3.16
2018-12-13T14:15:29.774Z,3.17
2018-12-13T14:16:39.595Z,3.16
2018-12-13T14:17:49.667Z,3.23
2018-12-13T14:18:59.476Z,3.13
2018-12-13T14:20:09.687Z,3.23
2018-12-13T14:21:19.999Z,3.19
2018-12-13T14:22:30.054Z,3.14
2018-12-13T14:23:39.844Z,3.08
2018-12-13T14:24:49.653Z,3.14
2018-12-13T14:25:59.714Z,3.16
2018-12-13T14:27:11.005Z,3.11
2018-12-13T14:28:21.066Z,3.11
2018-12-13T14:29:31.233Z,3.14
2018-12-13T14:30:41.041Z,3.16
2018-12-13T14:31:51.139Z,3.14
2018-12-13T14:33:01.218Z,3.19
2018-12-13T14:34:11.311Z,3.17
2018-12-13T14:35:21.373Z,3.14
2018-12-13T14:36:30.654Z,3.26
2018-12-13T14:37:41.065Z,3.24
2018-12-13T14:38:51.135Z,3.23
2018-12-13T14:40:01.557Z,3.34
2018-12-13T14:41:11.644Z,3.34
2018-12-13T14:42:21.191Z,3.21
2018-12-13T14:43:31.758Z,3.24
2018-12-13T14:44:41.843Z,3.24
2018-12-13T14:45:51.416Z,3.24
2018-12-13T14:47:01.476Z,3.19
2018-12-13T14:48:11.328Z,3.13
2018-12-13T14:49:21.518Z,3.2
2018-12-13T14:50:31.604Z,3.16
2018-12-13T14:51:41.658Z,3.19
2018-12-13T14:52:51.759Z,3.16
2018-12-13T14:54:02.134Z,3.23
2018-12-13T14:55:12.202Z,3.27
2018-12-13T14:56:22.287Z,3.27
2018-12-13T14:57:32.380Z,3.24
2018-12-13T14:58:42.193Z,3.21
2018-12-13T14:59:52.020Z,3.14
2018-12-13T15:01:02.416Z,3.21
2018-12-13T15:02:12.484Z,3.16
2018-12-13T15:03:22.549Z,3.27
2018-12-13T15:04:32.625Z,3.23
2018-12-13T15:05:42.684Z,3.24
2018-12-13T15:06:52.785Z,3.27
2018-12-13T15:08:03.710Z,3.34
2018-12-13T15:09:13.543Z,3.35
2018-12-13T15:10:23.612Z,3.35
2018-12-13T15:11:33.751Z,3.4
2018-12-13T15:12:43.823Z,3.32
2018-12-13T15:13:53.899Z,3.3
2018-12-13T15:15:03.970Z,3.27
2018-12-13T15:16:14.097Z,3.27
2018-12-13T15:17:24.226Z,3.26
2018-12-13T15:18:34.308Z,3.3
2018-12-13T15:19:44.393Z,3.24
2018-12-13T15:20:54.486Z,3.24
2018-12-13T15:22:04.358Z,3.26
2018-12-13T15:23:14.438Z,3.27
2018-12-13T15:24:24.014Z,3.35
2018-12-13T15:25:33.595Z,3.35
2018-12-13T15:26:43.421Z,3.34
2018-12-13T15:27:53.218Z,3.3
2018-12-13T15:29:05.445Z,3.37
2018-12-13T15:30:15.347Z,3.35
2018-12-13T15:31:25.153Z,3.34
2018-12-13T15:32:35.458Z,3.3
2018-12-13T15:33:45.534Z,3.34
2018-12-13T15:34:55.642Z,3.4
2018-12-13T15:36:05.613Z,3.35
2018-12-13T15:37:15.695Z,3.34
2018-12-13T15:38:26.014Z,3.29
2018-12-13T15:39:36.068Z,3.3
2018-12-13T15:40:46.136Z,3.34
2018-12-13T15:41:56.221Z,3.32
2018-12-13T15:43:06.296Z,3.32
2018-12-13T15:44:16.364Z,3.35
2018-12-13T15:45:26.435Z,3.39
2018-12-13T15:46:36.252Z,3.24
2018-12-13T15:47:46.326Z,3.19
2018-12-13T15:48:56.628Z,3.16
2018-12-13T15:50:06.705Z,3.19
2018-12-13T15:51:16.775Z,3.11
2018-12-13T15:52:26.196Z,3.16
2018-12-13T15:53:36.269Z,3.17
2018-12-13T15:54:45.870Z,3.14
2018-12-13T15:55:55.980Z,3.26
2018-12-13T15:57:05.821Z,3.21
2018-12-13T15:58:15.645Z,3.26
2018-12-13T15:59:25.474Z,3.34
2018-12-13T16:00:35.529Z,3.3
2018-12-13T16:01:45.633Z,3.29
2018-12-13T16:02:56.565Z,3.34
2018-12-13T16:04:09.642Z,3.32
2018-12-13T16:05:19.696Z,3.39
2018-12-13T16:06:29.790Z,3.35
2018-12-13T16:07:39.874Z,3.3